createdAt,value
2018-12-26T00:01:01.569Z,13.63
2018-12-26T00:03:32.398Z,14.53
2018-12-26T00:06:03.079Z,14.23
2018-12-26T00:08:34.210Z,14.27
2018-12-26T00:11:05.873Z,14.40
2018-12-26T00:13:36.717Z,13.70
2018-12-26T00:16:06.364Z,14.03
2018-12-26T00:18:35.976Z,12.60
2018-12-26T00:21:05.576Z,14.13
2018-12-26T00:23:35.103Z,13.37
2018-12-26T00:26:04.678Z,13.57
2018-12-26T00:28:34.214Z,14.40
2018-12-26T00:31:05.409Z,13.83
2018-12-26T00:33:34.914Z,14.00
2018-12-26T00:36:04.948Z,14.17
2018-12-26T00:38:34.599Z,14.60
2018-12-26T00:41:04.230Z,15.07
2018-12-26T00:43:33.808Z,16.20
2018-12-26T00:46:03.320Z,14.93
2018-12-26T00:48:32.857Z,15.57
2018-12-26T00:51:02.419Z,15.00
2018-12-26T00:53:31.962Z,13.67
2018-12-26T00:56:10.270Z,14.53
2018-12-26T00:58:32.799Z,14.27
2018-12-26T01:01:02.358Z,15.13
2018-12-26T01:03:32.382Z,14.90
2018-12-26T01:06:01.908Z,16.17
2018-12-26T01:08:31.582Z,15.63
2018-12-26T01:11:01.186Z,14.53
2018-12-26T01:13:30.753Z,15.60
2018-12-26T01:16:00.308Z,15.57
2018-12-26T01:18:29.879Z,15.83
2018-12-26T01:20:59.407Z,17.50
2018-12-26T01:23:28.978Z,16.43
2018-12-26T01:25:58.535Z,15.80
2018-12-26T01:28:28.118Z,14.67
2018-12-26T01:30:57.656Z,17.17
2018-12-26T01:33:27.215Z,17.40
2018-12-26T01:35:56.767Z,15.70
2018-12-26T01:38:26.340Z,16.10
2018-12-26T01:40:55.912Z,16.87
2018-12-26T01:43:25.524Z,15.23
2018-12-26T01:45:55.084Z,15.90
2018-12-26T01:48:24.631Z,14.27
2018-12-26T01:50:54.185Z,16.03
2018-12-26T01:53:23.763Z,16.77
2018-12-26T01:55:53.297Z,15.53
2018-12-26T01:58:22.831Z,17.03
2018-12-26T02:00:52.410Z,16.63
2018-12-26T02:03:21.914Z,15.83
2018-12-26T02:05:51.482Z,16.93
2018-12-26T02:08:21.064Z,15.73
2018-12-26T02:10:50.621Z,15.60
2018-12-26T02:13:20.229Z,17.70
2018-12-26T02:15:49.775Z,15.80
2018-12-26T02:18:19.314Z,17.07
2018-12-26T02:20:49.142Z,16.63
2018-12-26T02:23:18.670Z,17.73
2018-12-26T02:25:48.214Z,15.87
2018-12-26T02:28:17.764Z,16.10
2018-12-26T02:30:47.322Z,16.67
2018-12-26T02:33:16.867Z,17.20
2018-12-26T02:35:46.425Z,17.40
2018-12-26T02:38:15.992Z,16.80
2018-12-26T02:40:45.518Z,16.27
2018-12-26T02:43:15.071Z,16.77
2018-12-26T02:45:44.614Z,18.03
2018-12-26T02:48:14.176Z,16.83
2018-12-26T02:50:43.725Z,18.07
2018-12-26T02:53:13.317Z,17.07
2018-12-26T02:55:45.268Z,16.53
2018-12-26T02:58:14.820Z,16.37
2018-12-26T03:00:44.386Z,17.10
2018-12-26T03:03:13.952Z,17.33
2018-12-26T03:05:43.482Z,17.90
2018-12-26T03:08:13.019Z,17.17
2018-12-26T03:10:42.601Z,17.00
2018-12-26T03:13:12.132Z,18.33
2018-12-26T03:15:41.692Z,18.73
2018-12-26T03:18:11.233Z,18.73
2018-12-26T03:20:40.803Z,17.97
2018-12-26T03:23:10.325Z,17.00
2018-12-26T03:25:39.892Z,17.57
2018-12-26T03:28:09.451Z,18.67
2018-12-26T03:30:39.000Z,17.93
2018-12-26T03:33:08.574Z,19.13
2018-12-26T03:35:38.100Z,17.07
2018-12-26T03:38:07.672Z,18.37
2018-12-26T03:40:37.354Z,17.00
2018-12-26T03:43:07.002Z,16.27
2018-12-26T03:45:36.994Z,17.83
2018-12-26T03:48:06.600Z,18.10
2018-12-26T03:50:36.178Z,19.33
2018-12-26T03:53:05.885Z,19.23
2018-12-26T03:55:36.311Z,18.47
2018-12-26T03:58:05.891Z,18.10
2018-12-26T04:00:35.437Z,18.07
2018-12-26T04:03:04.971Z,18.30
2018-12-26T04:05:34.545Z,16.60
2018-12-26T04:08:04.479Z,17.67
2018-12-26T04:10:34.174Z,18.47
2018-12-26T04:13:06.078Z,17.87
2018-12-26T04:15:35.788Z,17.07
2018-12-26T04:18:05.401Z,16.90
2018-12-26T04:20:34.991Z,18.57
2018-12-26T04:23:05.897Z,16.70
2018-12-26T04:25:38.240Z,17.47
2018-12-26T04:28:07.835Z,18.33
2018-12-26T04:30:39.100Z,17.90
2018-12-26T04:33:08.649Z,17.93
2018-12-26T04:35:38.498Z,17.60
2018-12-26T04:38:09.096Z,17.73
2018-12-26T04:40:38.668Z,17.83
2018-12-26T04:43:08.219Z,18.00
2018-12-26T04:45:37.785Z,17.20
2018-12-26T04:48:07.352Z,18.00
2018-12-26T04:50:36.957Z,17.73
2018-12-26T04:53:06.504Z,16.90
2018-12-26T04:55:37.690Z,17.03
2018-12-26T04:58:07.259Z,17.87
2018-12-26T05:00:36.802Z,17.43
2018-12-26T05:03:06.343Z,17.00
2018-12-26T05:05:35.870Z,16.20
2018-12-26T05:08:05.453Z,16.63
2018-12-26T05:10:34.987Z,17.83
2018-12-26T05:13:04.625Z,18.53
2018-12-26T05:15:34.164Z,16.87
2018-12-26T05:18:03.751Z,16.23
2018-12-26T05:20:33.558Z,17.17
2018-12-26T05:23:03.118Z,17.17
2018-12-26T05:25:32.645Z,17.37
2018-12-26T05:28:02.198Z,17.97
2018-12-26T05:30:31.736Z,17.43
2018-12-26T05:33:01.301Z,17.27
2018-12-26T05:35:30.913Z,17.30
2018-12-26T05:38:00.469Z,16.53
2018-12-26T05:40:30.043Z,17.60
2018-12-26T05:42:59.858Z,18.07
2018-12-26T05:45:29.395Z,17.87
2018-12-26T05:47:58.969Z,17.40
2018-12-26T05:50:28.958Z,18.37
2018-12-26T05:52:58.491Z,18.70
2018-12-26T05:55:28.039Z,17.53
2018-12-26T05:57:59.230Z,16.73
2018-12-26T06:00:28.770Z,18.83
2018-12-26T06:02:58.343Z,16.77
2018-12-26T06:05:30.187Z,18.13
2018-12-26T06:07:59.742Z,18.93
2018-12-26T06:10:29.555Z,16.50
2018-12-26T06:12:59.230Z,18.33
2018-12-26T06:15:30.353Z,17.50
2018-12-26T06:18:00.302Z,18.77
2018-12-26T06:20:29.910Z,17.43
2018-12-26T06:22:59.472Z,18.30
2018-12-26T06:25:29.042Z,17.40
2018-12-26T06:27:58.736Z,17.60
2018-12-26T06:30:28.289Z,17.13
2018-12-26T06:32:57.812Z,17.53
2018-12-26T06:35:27.471Z,17.67
2018-12-26T06:37:57.043Z,17.13
2018-12-26T06:40:26.575Z,18.10
2018-12-26T06:42:56.143Z,17.47
2018-12-26T06:45:26.159Z,18.03
2018-12-26T06:47:55.726Z,17.13
2018-12-26T06:50:25.259Z,17.90
2018-12-26T06:52:54.853Z,17.47
2018-12-26T06:55:27.455Z,18.03
2018-12-26T06:58:00.204Z,18.83
2018-12-26T07:00:29.468Z,17.70
2018-12-26T07:02:59.997Z,17.07
2018-12-26T07:05:29.520Z,15.97
2018-12-26T07:07:59.072Z,17.17
2018-12-26T07:10:28.632Z,18.13
2018-12-26T07:12:58.444Z,17.80
2018-12-26T07:15:28.017Z,18.33
2018-12-26T07:17:57.593Z,17.87
2018-12-26T07:20:27.160Z,17.33
2018-12-26T07:22:56.718Z,17.77
2018-12-26T07:25:26.271Z,18.93
2018-12-26T07:27:55.813Z,19.30
2018-12-26T07:30:25.394Z,17.50
2018-12-26T07:32:55.124Z,17.90
2018-12-26T07:35:26.696Z,17.60
2018-12-26T07:37:56.337Z,18.33
2018-12-26T07:40:25.894Z,17.33
2018-12-26T07:42:55.437Z,17.43
2018-12-26T07:45:25.744Z,17.47
2018-12-26T07:47:55.564Z,16.77
2018-12-26T07:50:25.143Z,16.80
2018-12-26T07:52:54.709Z,17.43
2018-12-26T07:55:24.280Z,16.83
2018-12-26T07:57:53.828Z,18.30
2018-12-26T08:00:23.355Z,16.47
2018-12-26T08:02:52.918Z,16.93
2018-12-26T08:05:22.463Z,17.13
2018-12-26T08:07:52.003Z,17.13
2018-12-26T08:10:21.665Z,17.60
2018-12-26T08:12:51.230Z,17.97
2018-12-26T08:15:20.802Z,16.50
2018-12-26T08:17:50.349Z,16.90
2018-12-26T08:20:20.748Z,17.20
2018-12-26T08:22:51.298Z,16.27
2018-12-26T08:25:24.161Z,16.57
2018-12-26T08:27:53.701Z,16.73
2018-12-26T08:30:23.235Z,16.07
2018-12-26T08:32:53.217Z,15.37
2018-12-26T08:35:27.137Z,17.33
2018-12-26T08:37:57.719Z,15.40
2018-12-26T08:40:27.251Z,16.90
2018-12-26T08:42:56.833Z,16.53
2018-12-26T08:45:26.396Z,16.20
2018-12-26T08:47:55.981Z,16.13
2018-12-26T08:50:25.697Z,16.97
2018-12-26T08:52:55.528Z,16.37
2018-12-26T08:55:28.872Z,17.23
2018-12-26T08:57:58.796Z,16.60
2018-12-26T09:00:28.305Z,15.33
2018-12-26T09:02:57.907Z,16.07
2018-12-26T09:05:27.578Z,15.03
2018-12-26T09:07:57.090Z,15.63
2018-12-26T09:10:29.217Z,14.23
2018-12-26T09:12:58.708Z,15.90
2018-12-26T09:15:28.266Z,15.77
2018-12-26T09:17:59.488Z,15.53
2018-12-26T09:20:29.088Z,15.93
2018-12-26T09:23:00.528Z,15.07
2018-12-26T09:25:30.176Z,15.17
2018-12-26T09:27:59.809Z,15.37
2018-12-26T09:30:29.384Z,15.50
2018-12-26T09:32:58.972Z,15.50
2018-12-26T09:35:28.514Z,14.93
2018-12-26T09:37:58.083Z,16.23
2018-12-26T09:40:27.748Z,15.60
2018-12-26T09:42:58.009Z,14.10
2018-12-26T09:45:29.243Z,14.43
2018-12-26T09:48:00.456Z,15.30
2018-12-26T09:50:30.018Z,15.00
2018-12-26T09:52:59.605Z,15.93
2018-12-26T09:55:29.895Z,15.10
2018-12-26T09:58:01.189Z,16.17
2018-12-26T10:00:30.709Z,15.57
2018-12-26T10:03:02.566Z,15.33
2018-12-26T10:05:32.233Z,15.97
2018-12-26T10:08:02.176Z,15.70
2018-12-26T10:10:31.769Z,15.47
2018-12-26T10:13:02.380Z,15.03
2018-12-26T10:15:33.393Z,15.03
2018-12-26T10:18:04.124Z,15.63
2018-12-26T10:20:34.011Z,14.50
2018-12-26T10:23:04.871Z,14.87
2018-12-26T10:25:34.451Z,15.50
2018-12-26T10:28:04.020Z,15.37
2018-12-26T10:30:33.571Z,15.60
2018-12-26T10:33:04.367Z,15.00
2018-12-26T10:35:37.149Z,14.73
2018-12-26T10:38:08.939Z,14.23
2018-12-26T10:40:42.832Z,15.83
2018-12-26T10:43:15.069Z,15.83
2018-12-26T10:45:44.605Z,13.40
2018-12-26T10:48:15.967Z,14.70
2018-12-26T10:50:45.714Z,15.57
2018-12-26T10:53:15.283Z,14.60
2018-12-26T10:55:44.839Z,13.87
2018-12-26T10:58:16.283Z,14.23
2018-12-26T11:00:45.850Z,14.07
2018-12-26T11:03:15.427Z,15.93
2018-12-26T11:05:44.964Z,15.27
2018-12-26T11:08:14.536Z,14.10
2018-12-26T11:10:44.105Z,14.60
2018-12-26T11:13:14.580Z,14.30
2018-12-26T11:15:44.633Z,14.50
2018-12-26T11:18:15.244Z,14.23
2018-12-26T11:24:31.431Z,14.53
2018-12-26T11:27:00.953Z,14.23
2018-12-26T11:29:30.482Z,14.03
2018-12-26T11:32:00.055Z,14.47
2018-12-26T11:34:29.611Z,14.90
2018-12-26T11:36:59.227Z,14.40
2018-12-26T11:39:29.068Z,14.17
2018-12-26T11:41:58.708Z,14.13
2018-12-26T11:44:28.487Z,14.47
2018-12-26T11:46:58.309Z,14.00
2018-12-26T11:49:27.845Z,13.17
2018-12-26T11:51:57.410Z,14.67
2018-12-26T11:54:26.956Z,13.60
2018-12-26T11:56:56.511Z,14.10
2018-12-26T11:59:27.328Z,13.60
2018-12-26T12:01:57.135Z,14.53
2018-12-26T12:04:26.700Z,14.57
2018-12-26T12:06:56.278Z,13.23
2018-12-26T12:09:25.861Z,13.43
2018-12-26T12:11:55.407Z,13.70
2018-12-26T12:14:24.959Z,13.33
2018-12-26T12:16:56.032Z,13.23
2018-12-26T12:19:25.697Z,13.03
2018-12-26T12:21:56.173Z,14.07
2018-12-26T12:24:26.469Z,13.33
2018-12-26T12:26:57.801Z,12.70
2018-12-26T12:29:35.818Z,11.33
2018-12-26T12:31:58.703Z,13.17
2018-12-26T12:34:29.809Z,12.43
2018-12-26T12:37:01.165Z,12.67
2018-12-26T12:39:32.144Z,11.47
2018-12-26T12:42:02.911Z,12.27
2018-12-26T12:44:32.434Z,12.07
2018-12-26T12:47:02.023Z,11.33
2018-12-26T12:49:33.931Z,11.90
2018-12-26T12:52:03.514Z,12.43
2018-12-26T12:54:33.511Z,12.87
2018-12-26T12:57:03.807Z,11.67
2018-12-26T12:59:33.351Z,11.67
2018-12-26T13:02:04.157Z,10.93
2018-12-26T13:04:33.758Z,11.70
2018-12-26T13:07:03.405Z,12.47
2018-12-26T13:09:33.056Z,11.70
2018-12-26T13:12:02.964Z,10.57
2018-12-26T13:14:34.033Z,10.93
2018-12-26T13:17:03.609Z,11.03
2018-12-26T13:19:33.111Z,10.30
2018-12-26T13:22:02.764Z,10.50
2018-12-26T13:24:32.236Z,10.63
2018-12-26T13:27:03.317Z,11.60
2018-12-26T13:29:32.820Z,11.30
2018-12-26T13:32:02.370Z,11.37
2018-12-26T13:34:31.913Z,10.67
2018-12-26T13:37:01.467Z,11.07
2018-12-26T13:39:30.996Z,11.90
2018-12-26T13:42:00.570Z,11.23
2018-12-26T13:44:30.700Z,11.63
2018-12-26T13:47:00.841Z,10.67
2018-12-26T13:49:30.330Z,10.37
2018-12-26T13:51:59.898Z,10.60
2018-12-26T13:54:29.440Z,10.93
2018-12-26T13:57:01.937Z,10.80
2018-12-26T13:59:31.514Z,10.67
2018-12-26T14:02:01.051Z,10.30
2018-12-26T14:04:33.859Z,10.27
2018-12-26T14:07:04.838Z,11.50
2018-12-26T14:09:34.351Z,10.23
2018-12-26T14:12:03.883Z,10.57
2018-12-26T14:14:33.446Z,10.20
2018-12-26T14:17:03.006Z,9.93
2018-12-26T14:19:32.548Z,10.63
2018-12-26T14:22:02.112Z,10.10
2018-12-26T14:24:31.646Z,9.60
2018-12-26T14:27:01.213Z,10.57
2018-12-26T14:29:30.751Z,10.50
2018-12-26T14:32:00.381Z,9.97
2018-12-26T14:34:29.987Z,9.70
2018-12-26T14:36:59.785Z,9.23
2018-12-26T14:39:29.313Z,9.77
2018-12-26T14:41:58.850Z,9.57
2018-12-26T14:44:28.420Z,9.53
2018-12-26T14:46:57.996Z,10.83
2018-12-26T14:49:27.547Z,10.70
2018-12-26T14:51:57.087Z,10.93
2018-12-26T14:54:26.635Z,10.33
2018-12-26T14:56:56.182Z,11.73
2018-12-26T14:59:25.836Z,10.20
2018-12-26T15:01:55.356Z,11.83
2018-12-26T15:04:24.936Z,11.07
2018-12-26T15:06:54.482Z,11.77
2018-12-26T15:09:27.046Z,10.40
2018-12-26T15:11:56.585Z,10.50
2018-12-26T15:14:26.127Z,10.97
2018-12-26T15:16:56.639Z,10.60
2018-12-26T15:19:26.193Z,10.33
2018-12-26T15:21:55.731Z,9.90
2018-12-26T15:24:25.267Z,10.83
2018-12-26T15:26:54.836Z,11.73
2018-12-26T15:29:24.368Z,11.63
2018-12-26T15:31:55.376Z,10.93
2018-12-26T15:34:24.960Z,11.60
2018-12-26T15:36:54.506Z,11.70
2018-12-26T15:39:24.052Z,11.97
2018-12-26T15:41:53.843Z,11.03
2018-12-26T15:44:23.453Z,12.07
2018-12-26T15:46:53.015Z,12.40
2018-12-26T15:49:22.557Z,12.30
2018-12-26T15:51:55.690Z,11.33
2018-12-26T15:54:25.212Z,10.33
2018-12-26T15:56:54.778Z,11.73
2018-12-26T15:59:24.324Z,11.40
2018-12-26T16:01:53.887Z,11.30
2018-12-26T16:04:23.551Z,11.80
2018-12-26T16:06:53.910Z,11.77
2018-12-26T16:09:23.521Z,11.03
2018-12-26T16:11:54.204Z,16.83
2018-12-26T16:14:23.856Z,11.17
2018-12-26T16:16:53.500Z,10.87
2018-12-26T16:19:24.209Z,10.53
2018-12-26T16:21:54.121Z,10.13
2018-12-26T16:24:23.680Z,11.13
2018-12-26T16:26:53.281Z,10.67
2018-12-26T16:29:22.822Z,10.73
2018-12-26T16:31:53.509Z,11.17
2018-12-26T16:34:23.072Z,10.40
2018-12-26T16:36:52.648Z,10.67
2018-12-26T16:39:23.915Z,9.73
2018-12-26T16:41:53.441Z,10.80
2018-12-26T16:44:22.991Z,10.67
2018-12-26T16:46:56.164Z,10.53
2018-12-26T16:49:26.946Z,10.43
2018-12-26T16:51:58.328Z,10.73
2018-12-26T16:54:28.094Z,10.30
2018-12-26T16:56:57.836Z,10.37
2018-12-26T16:59:27.383Z,10.47
2018-12-26T17:01:56.934Z,11.70
2018-12-26T17:04:26.481Z,10.63
2018-12-26T17:06:56.057Z,10.67
2018-12-26T17:09:25.589Z,10.47
2018-12-26T17:11:55.114Z,10.57
2018-12-26T17:14:24.661Z,11.67
2018-12-26T17:16:54.469Z,10.53
2018-12-26T17:19:24.044Z,11.57
2018-12-26T17:21:53.568Z,10.70
2018-12-26T17:24:23.171Z,11.50
2018-12-26T17:26:53.885Z,11.80
2018-12-26T17:29:24.117Z,12.00
2018-12-26T17:31:54.492Z,11.27
2018-12-26T17:34:24.893Z,10.10
2018-12-26T17:36:54.442Z,9.53
2018-12-26T17:39:23.995Z,9.50
2018-12-26T17:41:53.535Z,11.67
2018-12-26T17:44:23.058Z,10.60
2018-12-26T17:46:52.618Z,9.80
2018-12-26T17:49:22.182Z,9.67
2018-12-26T17:51:52.998Z,9.90
2018-12-26T17:54:26.838Z,10.00
2018-12-26T17:56:57.304Z,8.70
2018-12-26T17:59:32.477Z,7.77
2018-12-26T18:02:15.105Z,8.73
2018-12-26T18:04:49.613Z,9.00
2018-12-26T18:07:15.920Z,8.97
2018-12-26T18:09:45.476Z,8.97
2018-12-26T18:12:15.253Z,9.17
2018-12-26T18:14:44.802Z,9.13
2018-12-26T18:17:14.336Z,9.10
2018-12-26T18:19:43.873Z,7.67
2018-12-26T18:22:13.525Z,8.73
2018-12-26T18:24:43.047Z,8.00
2018-12-26T18:27:12.613Z,8.67
2018-12-26T18:29:43.160Z,8.37
2018-12-26T18:32:12.843Z,8.90
2018-12-26T18:34:44.963Z,10.30
2018-12-26T18:37:14.494Z,10.07
2018-12-26T18:39:44.298Z,11.27
2018-12-26T18:42:13.822Z,9.40
2018-12-26T18:44:43.371Z,9.50
2018-12-26T18:47:12.942Z,9.97
2018-12-26T18:49:42.495Z,10.50
2018-12-26T18:52:12.051Z,10.63
2018-12-26T18:54:41.582Z,10.23
2018-12-26T18:57:11.197Z,10.73
2018-12-26T18:59:40.767Z,10.90
2018-12-26T19:02:10.291Z,10.53
2018-12-26T19:04:42.524Z,8.83
2018-12-26T19:07:12.041Z,10.30
2018-12-26T19:09:41.590Z,10.70
2018-12-26T19:12:11.150Z,9.93
2018-12-26T19:14:40.787Z,9.10
2018-12-26T19:17:11.562Z,9.27
2018-12-26T19:19:41.214Z,9.27
2018-12-26T19:22:10.717Z,9.37
2018-12-26T19:24:40.548Z,9.60
2018-12-26T19:27:10.072Z,9.20
2018-12-26T19:29:39.595Z,8.67
2018-12-26T19:32:12.903Z,9.33
2018-12-26T19:34:42.177Z,12.07
2018-12-26T19:37:11.733Z,12.00
2018-12-26T19:39:41.281Z,10.50
2018-12-26T19:42:10.834Z,10.07
2018-12-26T19:44:40.434Z,10.40
2018-12-26T19:47:10.226Z,9.40
2018-12-26T19:49:39.802Z,10.67
2018-12-26T19:52:09.433Z,9.30
2018-12-26T19:54:38.988Z,10.70
2018-12-26T19:57:08.524Z,9.87
2018-12-26T19:59:38.093Z,10.20
2018-12-26T20:02:07.627Z,9.60
2018-12-26T20:04:37.152Z,9.07
2018-12-26T20:07:07.626Z,11.67
2018-12-26T20:09:37.192Z,10.30
2018-12-26T20:12:07.255Z,11.53
2018-12-26T20:14:38.915Z,10.90
2018-12-26T20:17:08.433Z,11.73
2018-12-26T20:19:37.974Z,12.20
2018-12-26T20:22:07.539Z,11.47
2018-12-26T20:24:37.235Z,12.07
2018-12-26T20:27:06.745Z,12.10
2018-12-26T20:29:36.301Z,11.53
2018-12-26T20:32:05.933Z,11.73
2018-12-26T20:34:37.099Z,10.67
2018-12-26T20:37:07.684Z,10.27
2018-12-26T20:39:37.216Z,11.57
2018-12-26T20:42:06.760Z,11.33
2018-12-26T20:44:36.299Z,10.10
2018-12-26T20:47:05.864Z,10.80
2018-12-26T20:49:35.382Z,10.00
2018-12-26T20:52:04.937Z,10.57
2018-12-26T20:54:34.476Z,10.90
2018-12-26T20:57:04.043Z,10.87
2018-12-26T20:59:33.562Z,10.60
2018-12-26T21:02:05.734Z,10.47
2018-12-26T21:04:36.766Z,9.77
2018-12-26T21:07:06.319Z,10.83
2018-12-26T21:09:35.892Z,11.50
2018-12-26T21:12:07.679Z,10.00
2018-12-26T21:14:37.243Z,10.60
2018-12-26T21:17:06.860Z,10.93
2018-12-26T21:19:36.531Z,9.43
2018-12-26T21:22:06.071Z,9.57
2018-12-26T21:24:35.617Z,10.40
2018-12-26T21:27:05.166Z,10.53
2018-12-26T21:29:35.022Z,11.13
2018-12-26T21:32:04.575Z,10.77
2018-12-26T21:34:34.162Z,10.40
2018-12-26T21:37:03.718Z,10.17
2018-12-26T21:39:33.516Z,10.73
2018-12-26T21:42:03.298Z,10.57
2018-12-26T21:44:32.899Z,10.80
2018-12-26T21:47:02.438Z,10.07
2018-12-26T21:49:32.025Z,10.63
2018-12-26T21:52:01.556Z,9.70
2018-12-26T21:54:31.091Z,10.43
2018-12-26T21:57:00.672Z,10.07
2018-12-26T21:59:30.843Z,10.37
2018-12-26T22:02:01.548Z,10.40
2018-12-26T22:04:31.096Z,10.60
2018-12-26T22:07:00.629Z,10.03
2018-12-26T22:09:30.175Z,9.67
2018-12-26T22:11:59.744Z,9.73
2018-12-26T22:14:29.569Z,9.83
2018-12-26T22:16:59.071Z,10.13
2018-12-26T22:19:28.601Z,9.97
2018-12-26T22:21:59.918Z,9.53
2018-12-26T22:24:29.454Z,10.37
2018-12-26T22:26:59.016Z,10.27
2018-12-26T22:29:28.566Z,9.93
2018-12-26T22:31:58.153Z,10.00
2018-12-26T22:34:27.690Z,11.13
2018-12-26T22:36:58.313Z,10.17
2018-12-26T22:39:27.880Z,10.37
2018-12-26T22:41:57.407Z,9.90
2018-12-26T22:44:27.848Z,10.20
2018-12-26T22:46:57.571Z,10.10
2018-12-26T22:49:27.128Z,9.93
2018-12-26T22:51:56.672Z,9.53
2018-12-26T22:54:26.207Z,9.93
2018-12-26T22:56:55.748Z,9.00
2018-12-26T22:59:25.591Z,9.23
2018-12-26T23:01:55.090Z,9.83
2018-12-26T23:04:24.631Z,9.27
2018-12-26T23:06:54.174Z,9.70
2018-12-26T23:09:25.577Z,9.20
2018-12-26T23:11:56.651Z,9.00
2018-12-26T23:14:27.968Z,9.53
2018-12-26T23:16:57.788Z,8.90
2018-12-26T23:19:27.433Z,8.53
2018-12-26T23:21:56.979Z,8.30
2018-12-26T23:24:26.520Z,8.63
2018-12-26T23:26:56.068Z,8.93
2018-12-26T23:29:25.662Z,8.67
2018-12-26T23:31:55.209Z,8.60
2018-12-26T23:34:24.745Z,8.97
2018-12-26T23:36:54.431Z,8.63
2018-12-26T23:39:23.964Z,7.80
2018-12-26T23:41:55.225Z,7.57
2018-12-26T23:44:26.967Z,8.43
2018-12-26T23:46:56.448Z,7.67
2018-12-26T23:49:27.288Z,8.30
2018-12-26T23:51:58.033Z,8.70
2018-12-26T23:54:27.568Z,7.97
2018-12-26T23:56:58.122Z,8.70
2018-12-26T23:59:30.503Z,8.73
